sensor_id;sensor_type;location;lat;lon;timestamp;P1;durP1;ratioP1;P2;durP2;ratioP2
46751;SDS011;32497;48.936;9.270;2024-03-02T00:00:36;1.63;;;0.90;;
46751;SDS011;32497;48.936;9.270;2024-03-02T00:05:37;3.83;;;1.67;;
46751;SDS011;32497;48.936;9.270;2024-03-02T00:10:39;3.13;;;1.17;;
46751;SDS011;32497;48.936;9.270;2024-03-02T00:15:43;2.53;;;0.80;;
46751;SDS011;32497;48.936;9.270;2024-03-02T00:20:47;4.77;;;1.30;;
46751;SDS011;32497;48.936;9.270;2024-03-02T00:25:48;2.50;;;0.93;;
46751;SDS011;32497;48.936;9.270;2024-03-02T00:30:54;1.67;;;0.70;;
46751;SDS011;32497;48.936;9.270;2024-03-02T00:35:56;2.20;;;1.00;;
46751;SDS011;32497;48.936;9.270;2024-03-02T00:40:58;1.27;;;0.93;;
46751;SDS011;32497;48.936;9.270;2024-03-02T00:46:01;3.00;;;1.10;;
46751;SDS011;32497;48.936;9.270;2024-03-02T00:51:03;2.33;;;1.10;;
46751;SDS011;32497;48.936;9.270;2024-03-02T00:56:04;1.67;;;0.90;;
46751;SDS011;32497;48.936;9.270;2024-03-02T01:01:12;2.70;;;0.97;;
46751;SDS011;32497;48.936;9.270;2024-03-02T01:06:13;0.93;;;0.70;;
46751;SDS011;32497;48.936;9.270;2024-03-02T01:11:14;3.03;;;1.40;;
46751;SDS011;32497;48.936;9.270;2024-03-02T01:16:16;3.27;;;1.00;;
46751;SDS011;32497;48.936;9.270;2024-03-02T01:21:18;1.87;;;0.60;;
46751;SDS011;32497;48.936;9.270;2024-03-02T01:26:19;2.73;;;0.97;;
46751;SDS011;32497;48.936;9.270;2024-03-02T01:31:21;2.93;;;1.13;;
46751;SDS011;32497;48.936;9.270;2024-03-02T01:36:22;2.57;;;0.83;;
46751;SDS011;32497;48.936;9.270;2024-03-02T01:41:23;1.70;;;0.77;;
46751;SDS011;32497;48.936;9.270;2024-03-02T01:46:26;1.73;;;1.03;;
46751;SDS011;32497;48.936;9.270;2024-03-02T01:51:27;3.33;;;1.33;;
46751;SDS011;32497;48.936;9.270;2024-03-02T01:56:29;6.50;;;1.40;;
46751;SDS011;32497;48.936;9.270;2024-03-02T02:01:31;2.90;;;0.87;;
46751;SDS011;32497;48.936;9.270;2024-03-02T02:06:32;1.77;;;1.37;;
46751;SDS011;32497;48.936;9.270;2024-03-02T02:11:33;2.10;;;1.10;;
46751;SDS011;32497;48.936;9.270;2024-03-02T02:16:36;1.17;;;0.77;;
46751;SDS011;32497;48.936;9.270;2024-03-02T02:21:38;1.57;;;1.13;;
46751;SDS011;32497;48.936;9.270;2024-03-02T02:26:42;3.77;;;1.50;;
46751;SDS011;32497;48.936;9.270;2024-03-02T02:31:43;1.70;;;0.97;;
46751;SDS011;32497;48.936;9.270;2024-03-02T02:36:46;2.77;;;0.83;;
46751;SDS011;32497;48.936;9.270;2024-03-02T02:41:47;0.90;;;0.57;;
46751;SDS011;32497;48.936;9.270;2024-03-02T02:46:48;2.80;;;1.03;;
46751;SDS011;32497;48.936;9.270;2024-03-02T02:51:51;5.17;;;1.30;;
46751;SDS011;32497;48.936;9.270;2024-03-02T02:56:52;4.73;;;1.73;;
46751;SDS011;32497;48.936;9.270;2024-03-02T03:01:53;2.40;;;0.90;;
46751;SDS011;32497;48.936;9.270;2024-03-02T03:06:56;1.03;;;0.93;;
46751;SDS011;32497;48.936;9.270;2024-03-02T03:11:57;4.37;;;1.17;;
46751;SDS011;32497;48.936;9.270;2024-03-02T03:16:58;5.67;;;1.83;;
46751;SDS011;32497;48.936;9.270;2024-03-02T03:22:01;0.43;;;0.43;;
46751;SDS011;32497;48.936;9.270;2024-03-02T03:27:02;2.77;;;0.50;;
46751;SDS011;32497;48.936;9.270;2024-03-02T03:32:03;1.30;;;0.90;;
46751;SDS011;32497;48.936;9.270;2024-03-02T03:37:06;2.23;;;1.13;;
46751;SDS011;32497;48.936;9.270;2024-03-02T03:42:07;2.93;;;1.20;;
46751;SDS011;32497;48.936;9.270;2024-03-02T03:47:08;1.97;;;1.27;;
46751;SDS011;32497;48.936;9.270;2024-03-02T03:52:11;1.00;;;0.70;;
46751;SDS011;32497;48.936;9.270;2024-03-02T03:57:12;1.87;;;1.40;;
46751;SDS011;32497;48.936;9.270;2024-03-02T04:02:13;6.80;;;1.77;;
46751;SDS011;32497;48.936;9.270;2024-03-02T04:07:15;3.63;;;1.60;;
46751;SDS011;32497;48.936;9.270;2024-03-02T04:12:16;2.20;;;0.80;;
46751;SDS011;32497;48.936;9.270;2024-03-02T04:17:17;1.93;;;1.13;;
46751;SDS011;32497;48.936;9.270;2024-03-02T04:22:20;3.67;;;1.80;;
46751;SDS011;32497;48.936;9.270;2024-03-02T04:27:21;2.67;;;1.10;;
46751;SDS011;32497;48.936;9.270;2024-03-02T04:32:22;2.90;;;1.13;;
46751;SDS011;32497;48.936;9.270;2024-03-02T04:37:25;2.80;;;0.83;;
46751;SDS011;32497;48.936;9.270;2024-03-02T04:42:26;1.47;;;1.07;;
46751;SDS011;32497;48.936;9.270;2024-03-02T04:47:27;4.97;;;2.23;;
46751;SDS011;32497;48.936;9.270;2024-03-02T04:52:29;1.83;;;0.87;;
46751;SDS011;32497;48.936;9.270;2024-03-02T04:57:30;2.83;;;1.20;;
46751;SDS011;32497;48.936;9.270;2024-03-02T05:02:31;4.23;;;1.20;;
46751;SDS011;32497;48.936;9.270;2024-03-02T05:07:34;1.50;;;1.40;;
46751;SDS011;32497;48.936;9.270;2024-03-02T05:12:35;2.93;;;1.63;;
46751;SDS011;32497;48.936;9.270;2024-03-02T05:17:36;1.50;;;1.27;;
46751;SDS011;32497;48.936;9.270;2024-03-02T05:22:39;1.30;;;0.73;;
46751;SDS011;32497;48.936;9.270;2024-03-02T05:27:40;0.60;;;0.60;;
46751;SDS011;32497;48.936;9.270;2024-03-02T05:32:41;1.37;;;1.07;;
46751;SDS011;32497;48.936;9.270;2024-03-02T05:37:43;1.77;;;1.33;;
46751;SDS011;32497;48.936;9.270;2024-03-02T05:42:44;1.47;;;0.90;;
46751;SDS011;32497;48.936;9.270;2024-03-02T05:47:45;1.73;;;0.60;;
46751;SDS011;32497;48.936;9.270;2024-03-02T05:52:48;1.17;;;0.93;;
46751;SDS011;32497;48.936;9.270;2024-03-02T05:57:49;1.47;;;0.67;;
46751;SDS011;32497;48.936;9.270;2024-03-02T06:02:50;2.77;;;0.63;;
46751;SDS011;32497;48.936;9.270;2024-03-02T06:07:52;2.17;;;0.83;;
46751;SDS011;32497;48.936;9.270;2024-03-02T06:12:54;1.00;;;0.60;;
46751;SDS011;32497;48.936;9.270;2024-03-02T06:17:55;2.83;;;1.00;;
46751;SDS011;32497;48.936;9.270;2024-03-02T06:22:57;0.47;;;0.47;;
46751;SDS011;32497;48.936;9.270;2024-03-02T06:27:58;2.30;;;0.97;;
46751;SDS011;32497;48.936;9.270;2024-03-02T06:32:59;0.57;;;0.57;;
46751;SDS011;32497;48.936;9.270;2024-03-02T06:38:02;1.50;;;0.70;;
46751;SDS011;32497;48.936;9.270;2024-03-02T06:43:03;2.13;;;0.70;;
46751;SDS011;32497;48.936;9.270;2024-03-02T06:48:05;2.90;;;1.07;;
46751;SDS011;32497;48.936;9.270;2024-03-02T06:53:08;1.33;;;0.63;;
46751;SDS011;32497;48.936;9.270;2024-03-02T06:58:09;2.10;;;1.03;;
46751;SDS011;32497;48.936;9.270;2024-03-02T07:03:10;1.27;;;0.47;;
46751;SDS011;32497;48.936;9.270;2024-03-02T07:08:13;5.07;;;1.57;;
46751;SDS011;32497;48.936;9.270;2024-03-02T07:13:14;12.30;;;1.40;;
46751;SDS011;32497;48.936;9.270;2024-03-02T07:18:15;1.67;;;1.00;;
46751;SDS011;32497;48.936;9.270;2024-03-02T07:23:17;2.17;;;1.47;;
46751;SDS011;32497;48.936;9.270;2024-03-02T07:28:18;8.87;;;2.60;;
46751;SDS011;32497;48.936;9.270;2024-03-02T07:33:20;3.77;;;1.40;;
46751;SDS011;32497;48.936;9.270;2024-03-02T07:38:22;3.30;;;1.13;;
46751;SDS011;32497;48.936;9.270;2024-03-02T07:43:23;5.47;;;1.50;;
46751;SDS011;32497;48.936;9.270;2024-03-02T07:48:24;6.90;;;2.20;;
46751;SDS011;32497;48.936;9.270;2024-03-02T07:53:27;3.73;;;1.70;;
46751;SDS011;32497;48.936;9.270;2024-03-02T07:58:28;1.93;;;0.93;;
46751;SDS011;32497;48.936;9.270;2024-03-02T08:03:30;3.43;;;1.63;;
46751;SDS011;32497;48.936;9.270;2024-03-02T08:08:32;4.80;;;1.97;;
46751;SDS011;32497;48.936;9.270;2024-03-02T08:13:33;3.47;;;1.83;;
46751;SDS011;32497;48.936;9.270;2024-03-02T08:18:34;5.30;;;1.83;;
46751;SDS011;32497;48.936;9.270;2024-03-02T08:23:37;3.70;;;1.50;;
46751;SDS011;32497;48.936;9.270;2024-03-02T08:28:38;2.97;;;1.70;;
46751;SDS011;32497;48.936;9.270;2024-03-02T08:33:40;2.97;;;1.13;;
46751;SDS011;32497;48.936;9.270;2024-03-02T08:38:42;1.73;;;1.00;;
46751;SDS011;32497;48.936;9.270;2024-03-02T08:43:43;4.60;;;1.80;;
46751;SDS011;32497;48.936;9.270;2024-03-02T08:48:44;1.40;;;1.03;;
46751;SDS011;32497;48.936;9.270;2024-03-02T08:53:47;2.23;;;1.47;;
46751;SDS011;32497;48.936;9.270;2024-03-02T08:58:48;4.33;;;1.40;;
46751;SDS011;32497;48.936;9.270;2024-03-02T09:03:50;2.53;;;1.43;;
46751;SDS011;32497;48.936;9.270;2024-03-02T09:08:53;2.13;;;0.93;;
46751;SDS011;32497;48.936;9.270;2024-03-02T09:13:54;2.43;;;0.97;;
46751;SDS011;32497;48.936;9.270;2024-03-02T09:18:55;2.60;;;1.57;;
46751;SDS011;32497;48.936;9.270;2024-03-02T09:23:58;2.80;;;1.40;;
46751;SDS011;32497;48.936;9.270;2024-03-02T09:28:59;2.70;;;1.00;;
46751;SDS011;32497;48.936;9.270;2024-03-02T09:34:00;4.40;;;1.20;;
46751;SDS011;32497;48.936;9.270;2024-03-02T09:39:02;4.70;;;1.30;;
46751;SDS011;32497;48.936;9.270;2024-03-02T09:44:03;2.97;;;1.27;;
46751;SDS011;32497;48.936;9.270;2024-03-02T09:49:05;1.33;;;0.77;;
46751;SDS011;32497;48.936;9.270;2024-03-02T09:54:08;1.23;;;0.80;;
46751;SDS011;32497;48.936;9.270;2024-03-02T09:59:09;3.07;;;0.90;;
46751;SDS011;32497;48.936;9.270;2024-03-02T10:04:10;1.77;;;0.77;;
46751;SDS011;32497;48.936;9.270;2024-03-02T10:09:14;1.43;;;0.60;;
46751;SDS011;32497;48.936;9.270;2024-03-02T10:14:27;1.17;;;0.43;;
46751;SDS011;32497;48.936;9.270;2024-03-02T10:19:28;2.37;;;0.97;;
46751;SDS011;32497;48.936;9.270;2024-03-02T10:24:35;1.53;;;0.73;;
46751;SDS011;32497;48.936;9.270;2024-03-02T10:29:38;2.87;;;0.87;;
46751;SDS011;32497;48.936;9.270;2024-03-02T10:34:40;2.40;;;1.07;;
46751;SDS011;32497;48.936;9.270;2024-03-02T10:39:43;6.80;;;1.07;;
46751;SDS011;32497;48.936;9.270;2024-03-02T10:44:46;1.07;;;0.63;;
46751;SDS011;32497;48.936;9.270;2024-03-02T10:49:50;0.57;;;0.40;;
46751;SDS011;32497;48.936;9.270;2024-03-02T10:54:54;0.70;;;0.43;;
46751;SDS011;32497;48.936;9.270;2024-03-02T10:59:56;0.90;;;0.50;;
46751;SDS011;32497;48.936;9.270;2024-03-02T11:05:02;0.63;;;0.43;;
46751;SDS011;32497;48.936;9.270;2024-03-02T11:10:08;1.67;;;0.73;;
46751;SDS011;32497;48.936;9.270;2024-03-02T11:15:10;1.17;;;0.43;;
46751;SDS011;32497;48.936;9.270;2024-03-02T11:20:16;0.73;;;0.30;;
46751;SDS011;32497;48.936;9.270;2024-03-02T11:25:26;0.98;;;0.32;;
46751;SDS011;32497;48.936;9.270;2024-03-02T11:35:51;2.57;;;0.70;;
46751;SDS011;32497;48.936;9.270;2024-03-02T11:40:53;1.13;;;0.60;;
46751;SDS011;32497;48.936;9.270;2024-03-02T11:45:57;0.80;;;0.40;;
46751;SDS011;32497;48.936;9.270;2024-03-02T11:51:00;1.50;;;0.40;;
46751;SDS011;32497;48.936;9.270;2024-03-02T11:56:03;0.47;;;0.32;;
46751;SDS011;32497;48.936;9.270;2024-03-02T12:01:06;0.80;;;0.50;;
46751;SDS011;32497;48.936;9.270;2024-03-02T12:06:08;0.52;;;0.40;;
46751;SDS011;32497;48.936;9.270;2024-03-02T12:11:12;0.60;;;0.40;;
46751;SDS011;32497;48.936;9.270;2024-03-02T12:16:16;0.50;;;0.45;;
46751;SDS011;32497;48.936;9.270;2024-03-02T12:21:24;0.40;;;0.22;;
46751;SDS011;32497;48.936;9.270;2024-03-02T12:26:26;1.65;;;0.60;;
46751;SDS011;32497;48.936;9.270;2024-03-02T12:31:28;1.23;;;0.45;;
46751;SDS011;32497;48.936;9.270;2024-03-02T12:36:29;0.98;;;0.50;;
46751;SDS011;32497;48.936;9.270;2024-03-02T12:41:31;0.80;;;0.30;;
46751;SDS011;32497;48.936;9.270;2024-03-02T12:46:33;0.50;;;0.40;;
46751;SDS011;32497;48.936;9.270;2024-03-02T12:51:34;0.63;;;0.40;;
46751;SDS011;32497;48.936;9.270;2024-03-02T12:56:37;0.30;;;0.30;;
46751;SDS011;32497;48.936;9.270;2024-03-02T13:01:38;0.88;;;0.40;;
46751;SDS011;32497;48.936;9.270;2024-03-02T13:06:51;0.40;;;0.40;;
46751;SDS011;32497;48.936;9.270;2024-03-02T13:11:53;0.57;;;0.28;;
46751;SDS011;32497;48.936;9.270;2024-03-02T13:16:55;0.85;;;0.47;;
46751;SDS011;32497;48.936;9.270;2024-03-02T13:21:58;0.82;;;0.60;;
46751;SDS011;32497;48.936;9.270;2024-03-02T13:27:01;0.70;;;0.70;;
46751;SDS011;32497;48.936;9.270;2024-03-02T13:32:02;0.70;;;0.43;;
46751;SDS011;32497;48.936;9.270;2024-03-02T13:37:03;0.60;;;0.60;;
46751;SDS011;32497;48.936;9.270;2024-03-02T13:42:06;0.60;;;0.60;;
46751;SDS011;32497;48.936;9.270;2024-03-02T13:47:07;0.70;;;0.30;;
46751;SDS011;32497;48.936;9.270;2024-03-02T13:52:09;1.10;;;0.70;;
46751;SDS011;32497;48.936;9.270;2024-03-02T13:57:11;0.60;;;0.60;;
46751;SDS011;32497;48.936;9.270;2024-03-02T14:02:13;0.70;;;0.70;;
46751;SDS011;32497;48.936;9.270;2024-03-02T14:07:15;0.70;;;0.70;;
46751;SDS011;32497;48.936;9.270;2024-03-02T14:12:17;2.58;;;0.90;;
46751;SDS011;32497;48.936;9.270;2024-03-02T14:17:18;0.75;;;0.60;;
46751;SDS011;32497;48.936;9.270;2024-03-02T14:22:19;0.70;;;0.70;;
46751;SDS011;32497;48.936;9.270;2024-03-02T14:27:22;0.68;;;0.65;;
46751;SDS011;32497;48.936;9.270;2024-03-02T14:32:23;1.08;;;0.70;;
46751;SDS011;32497;48.936;9.270;2024-03-02T14:37:24;0.50;;;0.50;;
46751;SDS011;32497;48.936;9.270;2024-03-02T14:42:27;1.00;;;0.60;;
46751;SDS011;32497;48.936;9.270;2024-03-02T14:47:28;0.60;;;0.38;;
46751;SDS011;32497;48.936;9.270;2024-03-02T14:52:29;0.52;;;0.50;;
46751;SDS011;32497;48.936;9.270;2024-03-02T14:57:31;0.80;;;0.60;;
46751;SDS011;32497;48.936;9.270;2024-03-02T15:02:32;0.70;;;0.50;;
46751;SDS011;32497;48.936;9.270;2024-03-02T15:07:34;1.75;;;0.98;;
46751;SDS011;32497;48.936;9.270;2024-03-02T15:12:36;0.65;;;0.50;;
46751;SDS011;32497;48.936;9.270;2024-03-02T15:17:38;0.45;;;0.38;;
46751;SDS011;32497;48.936;9.270;2024-03-02T15:22:39;0.40;;;0.30;;
46751;SDS011;32497;48.936;9.270;2024-03-02T15:27:42;0.77;;;0.35;;
46751;SDS011;32497;48.936;9.270;2024-03-02T15:32:43;0.85;;;0.35;;
46751;SDS011;32497;48.936;9.270;2024-03-02T15:37:44;0.45;;;0.20;;
46751;SDS011;32497;48.936;9.270;2024-03-02T15:42:47;0.30;;;0.20;;
46751;SDS011;32497;48.936;9.270;2024-03-02T15:47:48;0.77;;;0.60;;
46751;SDS011;32497;48.936;9.270;2024-03-02T15:52:49;0.68;;;0.30;;
46751;SDS011;32497;48.936;9.270;2024-03-02T15:57:51;0.60;;;0.30;;
46751;SDS011;32497;48.936;9.270;2024-03-02T16:02:53;0.70;;;0.30;;
46751;SDS011;32497;48.936;9.270;2024-03-02T16:07:54;0.40;;;0.20;;
46751;SDS011;32497;48.936;9.270;2024-03-02T16:12:56;0.60;;;0.20;;
46751;SDS011;32497;48.936;9.270;2024-03-02T16:17:57;0.90;;;0.40;;
46751;SDS011;32497;48.936;9.270;2024-03-02T16:22:58;1.60;;;0.50;;
46751;SDS011;32497;48.936;9.270;2024-03-02T16:28:01;0.50;;;0.30;;
46751;SDS011;32497;48.936;9.270;2024-03-02T16:33:02;1.00;;;0.38;;
46751;SDS011;32497;48.936;9.270;2024-03-02T16:38:03;0.97;;;0.43;;
46751;SDS011;32497;48.936;9.270;2024-03-02T16:43:06;1.30;;;0.47;;
46751;SDS011;32497;48.936;9.270;2024-03-02T16:48:07;2.23;;;0.77;;
46751;SDS011;32497;48.936;9.270;2024-03-02T16:53:08;1.90;;;0.90;;
46751;SDS011;32497;48.936;9.270;2024-03-02T16:58:11;0.90;;;0.40;;
46751;SDS011;32497;48.936;9.270;2024-03-02T17:03:12;0.87;;;0.30;;
46751;SDS011;32497;48.936;9.270;2024-03-02T17:08:13;1.47;;;0.80;;
46751;SDS011;32497;48.936;9.270;2024-03-02T17:13:16;1.03;;;0.70;;
46751;SDS011;32497;48.936;9.270;2024-03-02T17:18:17;0.80;;;0.57;;
46751;SDS011;32497;48.936;9.270;2024-03-02T17:23:18;0.30;;;0.30;;
46751;SDS011;32497;48.936;9.270;2024-03-02T17:28:23;0.80;;;0.30;;
46751;SDS011;32497;48.936;9.270;2024-03-02T17:33:26;1.53;;;0.70;;
46751;SDS011;32497;48.936;9.270;2024-03-02T17:38:27;0.90;;;0.47;;
46751;SDS011;32497;48.936;9.270;2024-03-02T17:43:29;1.20;;;0.53;;
46751;SDS011;32497;48.936;9.270;2024-03-02T17:48:31;0.97;;;0.63;;
46751;SDS011;32497;48.936;9.270;2024-03-02T17:53:32;0.90;;;0.67;;
46751;SDS011;32497;48.936;9.270;2024-03-02T17:58:35;3.57;;;0.90;;
46751;SDS011;32497;48.936;9.270;2024-03-02T18:03:36;0.90;;;0.33;;
46751;SDS011;32497;48.936;9.270;2024-03-02T18:08:37;2.27;;;1.43;;
46751;SDS011;32497;48.936;9.270;2024-03-02T18:13:39;2.47;;;1.33;;
46751;SDS011;32497;48.936;9.270;2024-03-02T18:18:41;3.27;;;1.17;;
46751;SDS011;32497;48.936;9.270;2024-03-02T18:23:42;3.23;;;0.93;;
46751;SDS011;32497;48.936;9.270;2024-03-02T18:28:44;2.87;;;1.70;;
46751;SDS011;32497;48.936;9.270;2024-03-02T18:33:46;4.30;;;1.20;;
46751;SDS011;32497;48.936;9.270;2024-03-02T18:38:47;2.40;;;1.60;;
46751;SDS011;32497;48.936;9.270;2024-03-02T18:43:51;2.70;;;1.23;;
46751;SDS011;32497;48.936;9.270;2024-03-02T18:48:52;4.53;;;2.30;;
46751;SDS011;32497;48.936;9.270;2024-03-02T18:53:53;5.83;;;2.13;;
46751;SDS011;32497;48.936;9.270;2024-03-02T18:58:56;4.73;;;1.87;;
46751;SDS011;32497;48.936;9.270;2024-03-02T19:03:57;5.10;;;2.40;;
46751;SDS011;32497;48.936;9.270;2024-03-02T19:08:58;7.33;;;2.37;;
46751;SDS011;32497;48.936;9.270;2024-03-02T19:14:00;7.37;;;2.87;;
46751;SDS011;32497;48.936;9.270;2024-03-02T19:19:02;4.80;;;2.93;;
46751;SDS011;32497;48.936;9.270;2024-03-02T19:24:03;4.90;;;2.90;;
46751;SDS011;32497;48.936;9.270;2024-03-02T19:29:05;9.20;;;2.80;;
46751;SDS011;32497;48.936;9.270;2024-03-02T19:34:06;8.30;;;2.70;;
46751;SDS011;32497;48.936;9.270;2024-03-02T19:39:07;5.20;;;2.23;;
46751;SDS011;32497;48.936;9.270;2024-03-02T19:44:10;11.73;;;3.37;;
46751;SDS011;32497;48.936;9.270;2024-03-02T19:49:11;5.00;;;2.27;;
46751;SDS011;32497;48.936;9.270;2024-03-02T19:54:12;7.70;;;2.70;;
46751;SDS011;32497;48.936;9.270;2024-03-02T19:59:15;5.07;;;2.17;;
46751;SDS011;32497;48.936;9.270;2024-03-02T20:04:18;3.97;;;2.50;;
46751;SDS011;32497;48.936;9.270;2024-03-02T20:09:19;5.53;;;2.53;;
46751;SDS011;32497;48.936;9.270;2024-03-02T20:14:21;5.43;;;2.50;;
46751;SDS011;32497;48.936;9.270;2024-03-02T20:19:23;6.70;;;2.50;;
46751;SDS011;32497;48.936;9.270;2024-03-02T20:24:24;5.93;;;2.07;;
46751;SDS011;32497;48.936;9.270;2024-03-02T20:29:26;3.63;;;2.53;;
46751;SDS011;32497;48.936;9.270;2024-03-02T20:34:27;5.23;;;1.97;;
46751;SDS011;32497;48.936;9.270;2024-03-02T20:39:28;3.43;;;1.80;;
46751;SDS011;32497;48.936;9.270;2024-03-02T20:44:31;4.20;;;2.27;;
46751;SDS011;32497;48.936;9.270;2024-03-02T20:49:32;4.17;;;2.50;;
46751;SDS011;32497;48.936;9.270;2024-03-02T20:54:33;6.97;;;2.33;;
46751;SDS011;32497;48.936;9.270;2024-03-02T20:59:36;6.67;;;2.27;;
46751;SDS011;32497;48.936;9.270;2024-03-02T21:04:37;8.10;;;2.67;;
46751;SDS011;32497;48.936;9.270;2024-03-02T21:09:38;4.63;;;1.90;;
46751;SDS011;32497;48.936;9.270;2024-03-02T21:14:41;4.83;;;2.83;;
46751;SDS011;32497;48.936;9.270;2024-03-02T21:19:42;4.73;;;1.50;;
46751;SDS011;32497;48.936;9.270;2024-03-02T21:24:43;4.17;;;1.63;;
46751;SDS011;32497;48.936;9.270;2024-03-02T21:29:45;7.47;;;2.37;;
46751;SDS011;32497;48.936;9.270;2024-03-02T21:34:46;7.73;;;2.83;;
46751;SDS011;32497;48.936;9.270;2024-03-02T21:39:48;8.03;;;2.97;;
46751;SDS011;32497;48.936;9.270;2024-03-02T21:44:50;2.07;;;1.60;;
46751;SDS011;32497;48.936;9.270;2024-03-02T21:49:51;8.00;;;2.43;;
46751;SDS011;32497;48.936;9.270;2024-03-02T21:54:52;5.87;;;1.77;;
46751;SDS011;32497;48.936;9.270;2024-03-02T21:59:55;4.60;;;2.67;;
46751;SDS011;32497;48.936;9.270;2024-03-02T22:04:56;3.60;;;1.93;;
46751;SDS011;32497;48.936;9.270;2024-03-02T22:09:57;4.77;;;2.93;;
46751;SDS011;32497;48.936;9.270;2024-03-02T22:15:00;7.00;;;2.83;;
46751;SDS011;32497;48.936;9.270;2024-03-02T22:20:01;4.50;;;2.30;;
46751;SDS011;32497;48.936;9.270;2024-03-02T22:25:02;3.53;;;1.83;;
46751;SDS011;32497;48.936;9.270;2024-03-02T22:30:06;4.50;;;2.17;;
46751;SDS011;32497;48.936;9.270;2024-03-02T22:35:07;10.63;;;2.37;;
46751;SDS011;32497;48.936;9.270;2024-03-02T22:40:09;3.60;;;1.87;;
46751;SDS011;32497;48.936;9.270;2024-03-02T22:45:11;7.60;;;3.10;;
46751;SDS011;32497;48.936;9.270;2024-03-02T22:50:12;6.80;;;2.60;;
46751;SDS011;32497;48.936;9.270;2024-03-02T22:55:14;4.97;;;2.77;;
46751;SDS011;32497;48.936;9.270;2024-03-02T23:00:16;5.20;;;2.17;;
46751;SDS011;32497;48.936;9.270;2024-03-02T23:05:17;3.23;;;1.60;;
46751;SDS011;32497;48.936;9.270;2024-03-02T23:10:19;5.30;;;2.33;;
46751;SDS011;32497;48.936;9.270;2024-03-02T23:15:21;4.73;;;2.60;;
46751;SDS011;32497;48.936;9.270;2024-03-02T23:20:22;10.80;;;3.50;;
46751;SDS011;32497;48.936;9.270;2024-03-02T23:25:23;5.00;;;2.77;;
46751;SDS011;32497;48.936;9.270;2024-03-02T23:30:26;5.23;;;2.83;;
46751;SDS011;32497;48.936;9.270;2024-03-02T23:35:27;10.43;;;3.23;;
46751;SDS011;32497;48.936;9.270;2024-03-02T23:40:28;6.67;;;2.70;;
46751;SDS011;32497;48.936;9.270;2024-03-02T23:45:30;5.70;;;2.47;;
46751;SDS011;32497;48.936;9.270;2024-03-02T23:50:31;3.70;;;2.20;;
46751;SDS011;32497;48.936;9.270;2024-03-02T23:55:33;5.33;;;2.27;;
